sensor_id;sensor_type;location;lat;lon;timestamp;P1;durP1;ratioP1;P2;durP2;ratioP2
14754;SDS011;7469;50.906;6.952;2023-03-14T00:00:28;2.77;;;1.10;;
14754;SDS011;7469;50.906;6.952;2023-03-14T00:02:57;4.17;;;1.30;;
14754;SDS011;7469;50.906;6.952;2023-03-14T00:05:25;3.03;;;1.30;;
14754;SDS011;7469;50.906;6.952;2023-03-14T00:07:53;4.03;;;1.37;;
14754;SDS011;7469;50.906;6.952;2023-03-14T00:10:21;3.47;;;1.10;;
14754;SDS011;7469;50.906;6.952;2023-03-14T00:12:49;4.53;;;1.30;;
14754;SDS011;7469;50.906;6.952;2023-03-14T00:15:17;2.43;;;1.10;;
14754;SDS011;7469;50.906;6.952;2023-03-14T00:17:45;4.53;;;1.47;;
14754;SDS011;7469;50.906;6.952;2023-03-14T00:20:14;6.77;;;1.80;;
14754;SDS011;7469;50.906;6.952;2023-03-14T00:22:42;5.07;;;1.70;;
14754;SDS011;7469;50.906;6.952;2023-03-14T00:25:10;11.43;;;2.07;;
14754;SDS011;7469;50.906;6.952;2023-03-14T00:27:39;4.97;;;1.60;;
14754;SDS011;7469;50.906;6.952;2023-03-14T00:30:07;2.70;;;1.30;;
14754;SDS011;7469;50.906;6.952;2023-03-14T00:32:36;4.07;;;1.60;;
14754;SDS011;7469;50.906;6.952;2023-03-14T00:35:04;2.70;;;1.50;;
14754;SDS011;7469;50.906;6.952;2023-03-14T00:37:34;3.70;;;1.47;;
14754;SDS011;7469;50.906;6.952;2023-03-14T00:40:02;4.10;;;2.07;;
14754;SDS011;7469;50.906;6.952;2023-03-14T00:42:32;5.50;;;1.57;;
14754;SDS011;7469;50.906;6.952;2023-03-14T00:45:04;4.77;;;1.43;;
14754;SDS011;7469;50.906;6.952;2023-03-14T00:47:36;4.07;;;1.30;;
14754;SDS011;7469;50.906;6.952;2023-03-14T00:50:05;4.43;;;1.50;;
14754;SDS011;7469;50.906;6.952;2023-03-14T00:52:35;3.20;;;1.20;;
14754;SDS011;7469;50.906;6.952;2023-03-14T00:55:03;3.80;;;1.20;;
14754;SDS011;7469;50.906;6.952;2023-03-14T00:57:32;4.03;;;1.07;;
14754;SDS011;7469;50.906;6.952;2023-03-14T01:00:00;6.00;;;1.47;;
14754;SDS011;7469;50.906;6.952;2023-03-14T01:02:30;2.67;;;1.10;;
14754;SDS011;7469;50.906;6.952;2023-03-14T01:04:58;6.03;;;1.53;;
14754;SDS011;7469;50.906;6.952;2023-03-14T01:07:26;2.40;;;1.07;;
14754;SDS011;7469;50.906;6.952;2023-03-14T01:09:55;6.67;;;1.10;;
14754;SDS011;7469;50.906;6.952;2023-03-14T01:12:23;2.47;;;0.87;;
14754;SDS011;7469;50.906;6.952;2023-03-14T01:14:51;4.37;;;0.93;;
14754;SDS011;7469;50.906;6.952;2023-03-14T01:17:19;4.37;;;1.20;;
14754;SDS011;7469;50.906;6.952;2023-03-14T01:19:47;7.37;;;1.90;;
14754;SDS011;7469;50.906;6.952;2023-03-14T01:22:15;3.37;;;1.23;;
14754;SDS011;7469;50.906;6.952;2023-03-14T01:24:43;3.40;;;1.37;;
14754;SDS011;7469;50.906;6.952;2023-03-14T01:27:13;6.83;;;1.27;;
14754;SDS011;7469;50.906;6.952;2023-03-14T01:29:40;5.23;;;1.20;;
14754;SDS011;7469;50.906;6.952;2023-03-14T01:32:08;4.73;;;1.13;;
14754;SDS011;7469;50.906;6.952;2023-03-14T01:34:36;3.63;;;1.00;;
14754;SDS011;7469;50.906;6.952;2023-03-14T01:37:04;4.47;;;1.30;;
14754;SDS011;7469;50.906;6.952;2023-03-14T01:39:34;3.53;;;1.60;;
14754;SDS011;7469;50.906;6.952;2023-03-14T01:42:02;3.33;;;1.27;;
14754;SDS011;7469;50.906;6.952;2023-03-14T01:47:16;4.17;;;1.10;;
14754;SDS011;7469;50.906;6.952;2023-03-14T01:49:45;2.50;;;1.00;;
14754;SDS011;7469;50.906;6.952;2023-03-14T01:52:16;1.03;;;0.50;;
14754;SDS011;7469;50.906;6.952;2023-03-14T01:54:50;3.30;;;0.77;;
14754;SDS011;7469;50.906;6.952;2023-03-14T01:57:27;1.80;;;0.70;;
14754;SDS011;7469;50.906;6.952;2023-03-14T01:59:59;1.40;;;0.60;;
14754;SDS011;7469;50.906;6.952;2023-03-14T02:02:36;7.10;;;1.10;;
14754;SDS011;7469;50.906;6.952;2023-03-14T02:05:05;2.73;;;0.67;;
14754;SDS011;7469;50.906;6.952;2023-03-14T02:07:35;0.83;;;0.73;;
14754;SDS011;7469;50.906;6.952;2023-03-14T02:10:08;2.17;;;0.73;;
14754;SDS011;7469;50.906;6.952;2023-03-14T02:12:37;0.63;;;0.40;;
14754;SDS011;7469;50.906;6.952;2023-03-14T02:15:08;1.13;;;0.67;;
14754;SDS011;7469;50.906;6.952;2023-03-14T02:17:36;2.10;;;0.50;;
14754;SDS011;7469;50.906;6.952;2023-03-14T02:20:13;0.87;;;0.50;;
14754;SDS011;7469;50.906;6.952;2023-03-14T02:22:50;1.93;;;0.50;;
14754;SDS011;7469;50.906;6.952;2023-03-14T02:25:21;3.20;;;0.80;;
14754;SDS011;7469;50.906;6.952;2023-03-14T02:27:56;0.80;;;0.47;;
14754;SDS011;7469;50.906;6.952;2023-03-14T02:30:25;1.97;;;0.57;;
14754;SDS011;7469;50.906;6.952;2023-03-14T02:32:55;1.47;;;0.67;;
14754;SDS011;7469;50.906;6.952;2023-03-14T02:35:26;1.17;;;0.50;;
14754;SDS011;7469;50.906;6.952;2023-03-14T02:37:59;0.57;;;0.40;;
14754;SDS011;7469;50.906;6.952;2023-03-14T02:40:31;0.67;;;0.50;;
14754;SDS011;7469;50.906;6.952;2023-03-14T02:43:00;2.20;;;0.70;;
14754;SDS011;7469;50.906;6.952;2023-03-14T02:48:18;2.03;;;1.23;;
14754;SDS011;7469;50.906;6.952;2023-03-14T02:50:48;5.40;;;1.37;;
14754;SDS011;7469;50.906;6.952;2023-03-14T02:53:20;5.00;;;1.57;;
14754;SDS011;7469;50.906;6.952;2023-03-14T02:55:51;4.40;;;1.50;;
14754;SDS011;7469;50.906;6.952;2023-03-14T02:58:20;4.60;;;1.10;;
14754;SDS011;7469;50.906;6.952;2023-03-14T03:00:48;3.20;;;0.80;;
14754;SDS011;7469;50.906;6.952;2023-03-14T03:03:16;3.20;;;0.90;;
14754;SDS011;7469;50.906;6.952;2023-03-14T03:05:47;3.60;;;1.03;;
14754;SDS011;7469;50.906;6.952;2023-03-14T03:08:16;3.23;;;0.80;;
14754;SDS011;7469;50.906;6.952;2023-03-14T03:10:45;2.30;;;1.20;;
14754;SDS011;7469;50.906;6.952;2023-03-14T03:13:13;2.97;;;1.17;;
14754;SDS011;7469;50.906;6.952;2023-03-14T03:15:42;5.50;;;1.20;;
14754;SDS011;7469;50.906;6.952;2023-03-14T03:18:10;3.07;;;1.03;;
14754;SDS011;7469;50.906;6.952;2023-03-14T03:20:38;4.57;;;1.50;;
14754;SDS011;7469;50.906;6.952;2023-03-14T03:23:07;3.97;;;1.27;;
14754;SDS011;7469;50.906;6.952;2023-03-14T03:25:35;2.80;;;1.00;;
14754;SDS011;7469;50.906;6.952;2023-03-14T03:28:03;4.93;;;1.27;;
14754;SDS011;7469;50.906;6.952;2023-03-14T03:30:36;3.13;;;1.00;;
14754;SDS011;7469;50.906;6.952;2023-03-14T03:33:06;7.77;;;1.37;;
14754;SDS011;7469;50.906;6.952;2023-03-14T03:35:34;6.67;;;1.40;;
14754;SDS011;7469;50.906;6.952;2023-03-14T03:38:08;10.73;;;1.70;;
14754;SDS011;7469;50.906;6.952;2023-03-14T03:40:37;4.23;;;1.47;;
14754;SDS011;7469;50.906;6.952;2023-03-14T03:43:05;3.77;;;1.50;;
14754;SDS011;7469;50.906;6.952;2023-03-14T03:45:33;5.00;;;1.30;;
14754;SDS011;7469;50.906;6.952;2023-03-14T03:48:02;7.67;;;1.17;;
14754;SDS011;7469;50.906;6.952;2023-03-14T03:50:31;6.47;;;1.30;;
14754;SDS011;7469;50.906;6.952;2023-03-14T03:52:59;5.83;;;1.87;;
14754;SDS011;7469;50.906;6.952;2023-03-14T03:55:27;5.07;;;1.13;;
14754;SDS011;7469;50.906;6.952;2023-03-14T03:57:55;6.63;;;1.20;;
14754;SDS011;7469;50.906;6.952;2023-03-14T04:00:23;2.97;;;1.17;;
14754;SDS011;7469;50.906;6.952;2023-03-14T04:02:51;7.13;;;1.40;;
14754;SDS011;7469;50.906;6.952;2023-03-14T04:05:19;5.47;;;1.07;;
14754;SDS011;7469;50.906;6.952;2023-03-14T04:07:48;9.13;;;1.80;;
14754;SDS011;7469;50.906;6.952;2023-03-14T04:10:16;3.07;;;1.20;;
14754;SDS011;7469;50.906;6.952;2023-03-14T04:12:44;2.83;;;1.50;;
14754;SDS011;7469;50.906;6.952;2023-03-14T04:15:12;4.57;;;1.47;;
14754;SDS011;7469;50.906;6.952;2023-03-14T04:17:40;4.53;;;1.33;;
14754;SDS011;7469;50.906;6.952;2023-03-14T04:20:08;4.53;;;1.30;;
14754;SDS011;7469;50.906;6.952;2023-03-14T04:22:37;6.53;;;1.40;;
14754;SDS011;7469;50.906;6.952;2023-03-14T04:25:08;4.60;;;1.23;;
14754;SDS011;7469;50.906;6.952;2023-03-14T04:27:36;3.73;;;1.13;;
14754;SDS011;7469;50.906;6.952;2023-03-14T04:30:04;3.17;;;1.30;;
14754;SDS011;7469;50.906;6.952;2023-03-14T04:32:33;3.70;;;0.87;;
14754;SDS011;7469;50.906;6.952;2023-03-14T04:35:01;3.97;;;1.00;;
14754;SDS011;7469;50.906;6.952;2023-03-14T04:37:29;3.13;;;0.90;;
14754;SDS011;7469;50.906;6.952;2023-03-14T04:39:56;4.27;;;1.10;;
14754;SDS011;7469;50.906;6.952;2023-03-14T04:42:26;6.13;;;1.20;;
14754;SDS011;7469;50.906;6.952;2023-03-14T04:44:54;3.47;;;1.07;;
14754;SDS011;7469;50.906;6.952;2023-03-14T04:47:21;2.73;;;1.13;;
14754;SDS011;7469;50.906;6.952;2023-03-14T04:49:49;3.07;;;1.07;;
14754;SDS011;7469;50.906;6.952;2023-03-14T04:52:17;5.53;;;1.00;;
14754;SDS011;7469;50.906;6.952;2023-03-14T04:54:45;2.37;;;0.80;;
14754;SDS011;7469;50.906;6.952;2023-03-14T04:57:13;2.93;;;0.80;;
14754;SDS011;7469;50.906;6.952;2023-03-14T04:59:42;4.17;;;1.07;;
14754;SDS011;7469;50.906;6.952;2023-03-14T05:02:10;3.60;;;0.70;;
14754;SDS011;7469;50.906;6.952;2023-03-14T05:04:39;6.57;;;1.27;;
14754;SDS011;7469;50.906;6.952;2023-03-14T05:07:07;6.43;;;1.07;;
14754;SDS011;7469;50.906;6.952;2023-03-14T05:09:35;4.90;;;0.70;;
14754;SDS011;7469;50.906;6.952;2023-03-14T05:12:03;1.97;;;0.77;;
14754;SDS011;7469;50.906;6.952;2023-03-14T05:14:32;2.43;;;1.00;;
14754;SDS011;7469;50.906;6.952;2023-03-14T05:17:01;2.23;;;0.80;;
14754;SDS011;7469;50.906;6.952;2023-03-14T05:19:29;2.57;;;0.80;;
14754;SDS011;7469;50.906;6.952;2023-03-14T05:21:59;1.50;;;0.83;;
14754;SDS011;7469;50.906;6.952;2023-03-14T05:24:27;1.80;;;0.80;;
14754;SDS011;7469;50.906;6.952;2023-03-14T05:26:55;1.07;;;0.43;;
14754;SDS011;7469;50.906;6.952;2023-03-14T05:29:23;1.40;;;0.43;;
14754;SDS011;7469;50.906;6.952;2023-03-14T05:31:51;0.13;;;0.13;;
14754;SDS011;7469;50.906;6.952;2023-03-14T05:34:20;1.23;;;0.43;;
14754;SDS011;7469;50.906;6.952;2023-03-14T05:36:48;1.07;;;0.30;;
14754;SDS011;7469;50.906;6.952;2023-03-14T05:39:16;0.67;;;0.47;;
14754;SDS011;7469;50.906;6.952;2023-03-14T05:41:44;0.77;;;0.40;;
14754;SDS011;7469;50.906;6.952;2023-03-14T05:44:12;1.93;;;0.40;;
14754;SDS011;7469;50.906;6.952;2023-03-14T05:46:39;1.13;;;0.30;;
14754;SDS011;7469;50.906;6.952;2023-03-14T05:49:07;0.37;;;0.27;;
14754;SDS011;7469;50.906;6.952;2023-03-14T05:51:37;0.20;;;0.20;;
14754;SDS011;7469;50.906;6.952;2023-03-14T05:54:05;0.30;;;0.30;;
14754;SDS011;7469;50.906;6.952;2023-03-14T05:56:33;0.83;;;0.30;;
14754;SDS011;7469;50.906;6.952;2023-03-14T05:59:01;0.30;;;0.30;;
14754;SDS011;7469;50.906;6.952;2023-03-14T06:01:29;0.47;;;0.20;;
14754;SDS011;7469;50.906;6.952;2023-03-14T06:03:57;0.20;;;0.20;;
14754;SDS011;7469;50.906;6.952;2023-03-14T06:06:25;0.50;;;0.30;;
14754;SDS011;7469;50.906;6.952;2023-03-14T06:08:54;0.10;;;0.10;;
14754;SDS011;7469;50.906;6.952;2023-03-14T06:11:22;0.30;;;0.30;;
14754;SDS011;7469;50.906;6.952;2023-03-14T06:13:50;0.10;;;0.10;;
14754;SDS011;7469;50.906;6.952;2023-03-14T06:16:18;0.10;;;0.10;;
14754;SDS011;7469;50.906;6.952;2023-03-14T06:18:46;0.67;;;0.30;;
14754;SDS011;7469;50.906;6.952;2023-03-14T06:21:15;0.10;;;0.10;;
14754;SDS011;7469;50.906;6.952;2023-03-14T06:23:44;0.60;;;0.27;;
14754;SDS011;7469;50.906;6.952;2023-03-14T06:26:14;0.33;;;0.20;;
14754;SDS011;7469;50.906;6.952;2023-03-14T06:28:41;0.33;;;0.33;;
14754;SDS011;7469;50.906;6.952;2023-03-14T06:31:09;0.80;;;0.50;;
14754;SDS011;7469;50.906;6.952;2023-03-14T06:33:37;1.17;;;0.40;;
14754;SDS011;7469;50.906;6.952;2023-03-14T06:36:06;0.83;;;0.30;;
14754;SDS011;7469;50.906;6.952;2023-03-14T06:38:34;0.30;;;0.30;;
14754;SDS011;7469;50.906;6.952;2023-03-14T06:41:03;0.43;;;0.30;;
14754;SDS011;7469;50.906;6.952;2023-03-14T06:43:33;0.20;;;0.20;;
14754;SDS011;7469;50.906;6.952;2023-03-14T06:46:01;2.77;;;0.50;;
14754;SDS011;7469;50.906;6.952;2023-03-14T06:48:29;0.57;;;0.40;;
14754;SDS011;7469;50.906;6.952;2023-03-14T06:50:57;0.20;;;0.20;;
14754;SDS011;7469;50.906;6.952;2023-03-14T06:53:25;0.30;;;0.30;;
14754;SDS011;7469;50.906;6.952;2023-03-14T06:55:52;1.03;;;0.40;;
14754;SDS011;7469;50.906;6.952;2023-03-14T06:58:20;0.20;;;0.20;;
14754;SDS011;7469;50.906;6.952;2023-03-14T07:00:50;1.27;;;0.30;;
14754;SDS011;7469;50.906;6.952;2023-03-14T07:03:19;0.17;;;0.17;;
14754;SDS011;7469;50.906;6.952;2023-03-14T07:05:47;0.37;;;0.10;;
14754;SDS011;7469;50.906;6.952;2023-03-14T07:08:15;0.40;;;0.23;;
14754;SDS011;7469;50.906;6.952;2023-03-14T07:10:43;0.50;;;0.30;;
14754;SDS011;7469;50.906;6.952;2023-03-14T07:13:11;0.30;;;0.30;;
14754;SDS011;7469;50.906;6.952;2023-03-14T07:15:39;0.57;;;0.37;;
14754;SDS011;7469;50.906;6.952;2023-03-14T07:18:08;1.20;;;0.33;;
14754;SDS011;7469;50.906;6.952;2023-03-14T07:20:36;0.17;;;0.10;;
14754;SDS011;7469;50.906;6.952;2023-03-14T07:23:04;0.20;;;0.20;;
14754;SDS011;7469;50.906;6.952;2023-03-14T07:25:32;0.27;;;0.27;;
14754;SDS011;7469;50.906;6.952;2023-03-14T07:28:00;0.10;;;0.10;;
14754;SDS011;7469;50.906;6.952;2023-03-14T07:30:28;0.10;;;0.10;;
14754;SDS011;7469;50.906;6.952;2023-03-14T07:32:56;0.33;;;0.30;;
14754;SDS011;7469;50.906;6.952;2023-03-14T07:35:25;0.20;;;0.20;;
14754;SDS011;7469;50.906;6.952;2023-03-14T07:37:53;0.30;;;0.20;;
14754;SDS011;7469;50.906;6.952;2023-03-14T07:40:21;0.20;;;0.20;;
14754;SDS011;7469;50.906;6.952;2023-03-14T07:42:49;0.20;;;0.20;;
14754;SDS011;7469;50.906;6.952;2023-03-14T07:45:21;0.53;;;0.30;;
14754;SDS011;7469;50.906;6.952;2023-03-14T07:47:50;0.13;;;0.13;;
14754;SDS011;7469;50.906;6.952;2023-03-14T07:50:18;0.20;;;0.20;;
14754;SDS011;7469;50.906;6.952;2023-03-14T07:52:47;0.40;;;0.20;;
14754;SDS011;7469;50.906;6.952;2023-03-14T07:55:16;0.20;;;0.20;;
14754;SDS011;7469;50.906;6.952;2023-03-14T07:57:44;0.13;;;0.13;;
14754;SDS011;7469;50.906;6.952;2023-03-14T08:00:13;0.10;;;0.10;;
14754;SDS011;7469;50.906;6.952;2023-03-14T08:02:41;0.20;;;0.20;;
14754;SDS011;7469;50.906;6.952;2023-03-14T08:05:09;0.20;;;0.20;;
14754;SDS011;7469;50.906;6.952;2023-03-14T08:07:37;0.20;;;0.20;;
14754;SDS011;7469;50.906;6.952;2023-03-14T08:10:08;0.20;;;0.20;;
14754;SDS011;7469;50.906;6.952;2023-03-14T08:12:36;0.20;;;0.20;;
14754;SDS011;7469;50.906;6.952;2023-03-14T08:15:05;0.33;;;0.30;;
14754;SDS011;7469;50.906;6.952;2023-03-14T08:17:33;1.30;;;0.40;;
14754;SDS011;7469;50.906;6.952;2023-03-14T08:20:01;0.57;;;0.30;;
14754;SDS011;7469;50.906;6.952;2023-03-14T08:22:32;0.20;;;0.20;;
14754;SDS011;7469;50.906;6.952;2023-03-14T08:25:00;0.20;;;0.20;;
14754;SDS011;7469;50.906;6.952;2023-03-14T08:27:29;0.20;;;0.20;;
14754;SDS011;7469;50.906;6.952;2023-03-14T08:29:57;0.20;;;0.20;;
14754;SDS011;7469;50.906;6.952;2023-03-14T08:32:26;0.20;;;0.20;;
14754;SDS011;7469;50.906;6.952;2023-03-14T08:34:54;0.30;;;0.30;;
14754;SDS011;7469;50.906;6.952;2023-03-14T08:37:22;0.20;;;0.20;;
14754;SDS011;7469;50.906;6.952;2023-03-14T08:39:52;0.10;;;0.10;;
14754;SDS011;7469;50.906;6.952;2023-03-14T08:42:20;0.33;;;0.20;;
14754;SDS011;7469;50.906;6.952;2023-03-14T08:44:50;0.33;;;0.33;;
14754;SDS011;7469;50.906;6.952;2023-03-14T08:47:18;0.20;;;0.20;;
14754;SDS011;7469;50.906;6.952;2023-03-14T08:49:46;0.20;;;0.20;;
14754;SDS011;7469;50.906;6.952;2023-03-14T08:52:15;0.83;;;0.47;;
14754;SDS011;7469;50.906;6.952;2023-03-14T08:54:43;1.13;;;0.30;;
14754;SDS011;7469;50.906;6.952;2023-03-14T08:57:11;0.37;;;0.30;;
14754;SDS011;7469;50.906;6.952;2023-03-14T08:59:39;1.80;;;0.33;;
14754;SDS011;7469;50.906;6.952;2023-03-14T09:02:09;0.20;;;0.20;;
14754;SDS011;7469;50.906;6.952;2023-03-14T09:04:39;0.30;;;0.30;;
14754;SDS011;7469;50.906;6.952;2023-03-14T09:07:07;3.30;;;0.60;;
14754;SDS011;7469;50.906;6.952;2023-03-14T09:09:35;2.03;;;0.70;;
14754;SDS011;7469;50.906;6.952;2023-03-14T09:12:03;0.70;;;0.50;;
14754;SDS011;7469;50.906;6.952;2023-03-14T09:14:31;2.07;;;0.70;;
14754;SDS011;7469;50.906;6.952;2023-03-14T09:16:59;1.53;;;0.70;;
14754;SDS011;7469;50.906;6.952;2023-03-14T09:19:29;0.70;;;0.50;;
14754;SDS011;7469;50.906;6.952;2023-03-14T09:21:57;0.77;;;0.50;;
14754;SDS011;7469;50.906;6.952;2023-03-14T09:24:25;1.07;;;0.47;;
14754;SDS011;7469;50.906;6.952;2023-03-14T09:26:54;0.67;;;0.67;;
14754;SDS011;7469;50.906;6.952;2023-03-14T09:29:22;0.47;;;0.47;;
14754;SDS011;7469;50.906;6.952;2023-03-14T09:31:50;0.50;;;0.40;;
14754;SDS011;7469;50.906;6.952;2023-03-14T09:34:18;0.53;;;0.33;;
14754;SDS011;7469;50.906;6.952;2023-03-14T09:36:48;0.30;;;0.30;;
14754;SDS011;7469;50.906;6.952;2023-03-14T09:39:16;2.07;;;0.50;;
14754;SDS011;7469;50.906;6.952;2023-03-14T09:41:44;0.30;;;0.30;;
14754;SDS011;7469;50.906;6.952;2023-03-14T09:44:15;1.60;;;0.40;;
14754;SDS011;7469;50.906;6.952;2023-03-14T09:46:47;1.33;;;0.43;;
14754;SDS011;7469;50.906;6.952;2023-03-14T09:49:19;0.90;;;0.50;;
14754;SDS011;7469;50.906;6.952;2023-03-14T09:51:51;0.90;;;0.40;;
14754;SDS011;7469;50.906;6.952;2023-03-14T09:54:28;0.43;;;0.33;;
14754;SDS011;7469;50.906;6.952;2023-03-14T09:57:00;0.43;;;0.43;;
14754;SDS011;7469;50.906;6.952;2023-03-14T09:59:29;0.60;;;0.40;;
14754;SDS011;7469;50.906;6.952;2023-03-14T10:01:58;0.80;;;0.40;;
14754;SDS011;7469;50.906;6.952;2023-03-14T10:04:28;1.60;;;0.50;;
14754;SDS011;7469;50.906;6.952;2023-03-14T10:07:00;0.77;;;0.40;;
14754;SDS011;7469;50.906;6.952;2023-03-14T10:09:30;0.93;;;0.70;;
14754;SDS011;7469;50.906;6.952;2023-03-14T10:11:58;0.50;;;0.50;;
14754;SDS011;7469;50.906;6.952;2023-03-14T10:14:31;0.50;;;0.50;;
14754;SDS011;7469;50.906;6.952;2023-03-14T10:17:07;0.63;;;0.63;;
14754;SDS011;7469;50.906;6.952;2023-03-14T10:19:37;0.80;;;0.80;;
14754;SDS011;7469;50.906;6.952;2023-03-14T10:22:18;2.80;;;0.90;;
14754;SDS011;7469;50.906;6.952;2023-03-14T10:24:47;3.77;;;0.93;;
14754;SDS011;7469;50.906;6.952;2023-03-14T10:27:20;0.87;;;0.83;;
14754;SDS011;7469;50.906;6.952;2023-03-14T10:29:53;1.27;;;0.90;;
14754;SDS011;7469;50.906;6.952;2023-03-14T10:32:28;0.80;;;0.80;;
14754;SDS011;7469;50.906;6.952;2023-03-14T10:35:04;1.53;;;0.80;;
14754;SDS011;7469;50.906;6.952;2023-03-14T10:37:44;1.20;;;0.80;;
14754;SDS011;7469;50.906;6.952;2023-03-14T10:40:18;1.50;;;0.80;;
14754;SDS011;7469;50.906;6.952;2023-03-14T10:42:49;0.70;;;0.70;;
14754;SDS011;7469;50.906;6.952;2023-03-14T10:45:23;1.80;;;0.80;;
14754;SDS011;7469;50.906;6.952;2023-03-14T10:47:58;0.97;;;0.83;;
14754;SDS011;7469;50.906;6.952;2023-03-14T10:50:32;1.10;;;0.80;;
14754;SDS011;7469;50.906;6.952;2023-03-14T10:53:02;1.07;;;1.07;;
14754;SDS011;7469;50.906;6.952;2023-03-14T10:55:39;2.67;;;1.47;;
14754;SDS011;7469;50.906;6.952;2023-03-14T10:58:18;1.00;;;1.00;;
14754;SDS011;7469;50.906;6.952;2023-03-14T11:00:50;1.27;;;1.00;;
14754;SDS011;7469;50.906;6.952;2023-03-14T11:03:23;1.20;;;1.20;;
14754;SDS011;7469;50.906;6.952;2023-03-14T11:05:54;1.00;;;1.00;;
14754;SDS011;7469;50.906;6.952;2023-03-14T11:08:27;1.40;;;1.30;;
14754;SDS011;7469;50.906;6.952;2023-03-14T11:11:05;0.77;;;0.77;;
14754;SDS011;7469;50.906;6.952;2023-03-14T11:13:43;1.77;;;1.43;;
14754;SDS011;7469;50.906;6.952;2023-03-14T11:16:22;1.07;;;1.00;;
14754;SDS011;7469;50.906;6.952;2023-03-14T11:19:08;1.40;;;1.10;;
14754;SDS011;7469;50.906;6.952;2023-03-14T11:21:49;2.10;;;1.07;;
14754;SDS011;7469;50.906;6.952;2023-03-14T11:24:36;1.00;;;1.00;;
14754;SDS011;7469;50.906;6.952;2023-03-14T11:27:13;1.47;;;1.37;;
14754;SDS011;7469;50.906;6.952;2023-03-14T11:29:48;2.93;;;1.03;;
14754;SDS011;7469;50.906;6.952;2023-03-14T11:32:25;1.93;;;0.60;;
14754;SDS011;7469;50.906;6.952;2023-03-14T11:35:15;2.07;;;1.10;;
14754;SDS011;7469;50.906;6.952;2023-03-14T11:37:47;1.27;;;0.80;;
14754;SDS011;7469;50.906;6.952;2023-03-14T11:40:22;1.43;;;0.80;;
14754;SDS011;7469;50.906;6.952;2023-03-14T11:42:54;1.00;;;0.87;;
14754;SDS011;7469;50.906;6.952;2023-03-14T11:45:29;1.43;;;1.10;;
14754;SDS011;7469;50.906;6.952;2023-03-14T11:48:07;0.83;;;0.73;;
14754;SDS011;7469;50.906;6.952;2023-03-14T11:50:44;1.33;;;0.40;;
14754;SDS011;7469;50.906;6.952;2023-03-14T11:53:16;0.60;;;0.60;;
14754;SDS011;7469;50.906;6.952;2023-03-14T11:55:50;1.07;;;0.40;;
14754;SDS011;7469;50.906;6.952;2023-03-14T11:58:20;0.30;;;0.30;;
14754;SDS011;7469;50.906;6.952;2023-03-14T12:00:53;1.17;;;0.60;;
14754;SDS011;7469;50.906;6.952;2023-03-14T12:03:24;1.10;;;0.57;;
14754;SDS011;7469;50.906;6.952;2023-03-14T12:05:59;1.80;;;0.70;;
14754;SDS011;7469;50.906;6.952;2023-03-14T12:08:42;0.83;;;0.63;;
14754;SDS011;7469;50.906;6.952;2023-03-14T12:11:17;1.77;;;0.77;;
14754;SDS011;7469;50.906;6.952;2023-03-14T12:13:48;1.30;;;0.97;;
14754;SDS011;7469;50.906;6.952;2023-03-14T12:16:31;0.77;;;0.77;;
14754;SDS011;7469;50.906;6.952;2023-03-14T12:19:14;2.57;;;0.90;;
14754;SDS011;7469;50.906;6.952;2023-03-14T12:22:17;1.60;;;1.00;;
14754;SDS011;7469;50.906;6.952;2023-03-14T12:24:53;1.67;;;1.00;;
14754;SDS011;7469;50.906;6.952;2023-03-14T12:30:33;1.50;;;0.90;;
14754;SDS011;7469;50.906;6.952;2023-03-14T12:33:19;1.00;;;1.00;;
14754;SDS011;7469;50.906;6.952;2023-03-14T12:36:03;3.53;;;0.97;;
14754;SDS011;7469;50.906;6.952;2023-03-14T12:38:43;2.37;;;1.07;;
14754;SDS011;7469;50.906;6.952;2023-03-14T12:41:24;2.60;;;1.00;;
14754;SDS011;7469;50.906;6.952;2023-03-14T12:43:56;0.60;;;0.60;;
14754;SDS011;7469;50.906;6.952;2023-03-14T12:46:46;4.93;;;0.90;;
14754;SDS011;7469;50.906;6.952;2023-03-14T12:49:14;2.47;;;1.10;;
14754;SDS011;7469;50.906;6.952;2023-03-14T12:51:42;2.10;;;0.80;;
14754;SDS011;7469;50.906;6.952;2023-03-14T12:54:21;2.13;;;1.10;;
14754;SDS011;7469;50.906;6.952;2023-03-14T12:57:10;2.67;;;1.00;;
14754;SDS011;7469;50.906;6.952;2023-03-14T12:59:52;2.47;;;1.00;;
14754;SDS011;7469;50.906;6.952;2023-03-14T13:02:25;1.97;;;0.70;;
14754;SDS011;7469;50.906;6.952;2023-03-14T13:05:03;2.97;;;0.60;;
14754;SDS011;7469;50.906;6.952;2023-03-14T13:10:32;2.43;;;0.67;;
14754;SDS011;7469;50.906;6.952;2023-03-14T13:13:13;0.70;;;0.70;;
14754;SDS011;7469;50.906;6.952;2023-03-14T13:15:46;2.77;;;0.63;;
14754;SDS011;7469;50.906;6.952;2023-03-14T13:18:26;1.40;;;0.80;;
14754;SDS011;7469;50.906;6.952;2023-03-14T13:20:58;1.80;;;0.93;;
14754;SDS011;7469;50.906;6.952;2023-03-14T13:23:30;3.13;;;1.10;;
14754;SDS011;7469;50.906;6.952;2023-03-14T13:26:00;1.63;;;0.97;;
14754;SDS011;7469;50.906;6.952;2023-03-14T13:28:29;0.40;;;0.40;;
14754;SDS011;7469;50.906;6.952;2023-03-14T13:30:58;3.73;;;0.83;;
14754;SDS011;7469;50.906;6.952;2023-03-14T13:33:29;3.37;;;0.90;;
14754;SDS011;7469;50.906;6.952;2023-03-14T13:36:00;3.20;;;0.83;;
14754;SDS011;7469;50.906;6.952;2023-03-14T13:38:30;4.13;;;1.20;;
14754;SDS011;7469;50.906;6.952;2023-03-14T13:41:03;3.20;;;0.90;;
14754;SDS011;7469;50.906;6.952;2023-03-14T13:43:33;3.37;;;1.10;;
14754;SDS011;7469;50.906;6.952;2023-03-14T13:46:03;2.60;;;0.90;;
14754;SDS011;7469;50.906;6.952;2023-03-14T13:48:35;2.23;;;0.77;;
14754;SDS011;7469;50.906;6.952;2023-03-14T13:51:10;1.67;;;0.87;;
14754;SDS011;7469;50.906;6.952;2023-03-14T13:53:44;4.20;;;1.20;;
14754;SDS011;7469;50.906;6.952;2023-03-14T13:56:13;5.23;;;0.97;;
14754;SDS011;7469;50.906;6.952;2023-03-14T13:58:41;3.30;;;1.10;;
14754;SDS011;7469;50.906;6.952;2023-03-14T14:01:13;2.90;;;1.07;;
14754;SDS011;7469;50.906;6.952;2023-03-14T14:03:45;5.47;;;1.13;;
14754;SDS011;7469;50.906;6.952;2023-03-14T14:06:27;6.43;;;1.77;;
14754;SDS011;7469;50.906;6.952;2023-03-14T14:08:58;6.40;;;1.47;;
14754;SDS011;7469;50.906;6.952;2023-03-14T14:11:40;7.27;;;1.30;;
14754;SDS011;7469;50.906;6.952;2023-03-14T14:14:27;9.90;;;1.97;;
14754;SDS011;7469;50.906;6.952;2023-03-14T14:16:59;5.83;;;1.40;;
14754;SDS011;7469;50.906;6.952;2023-03-14T14:19:29;7.30;;;1.63;;
14754;SDS011;7469;50.906;6.952;2023-03-14T14:22:00;5.03;;;2.03;;
14754;SDS011;7469;50.906;6.952;2023-03-14T14:24:29;11.50;;;2.20;;
14754;SDS011;7469;50.906;6.952;2023-03-14T14:26:59;8.70;;;1.80;;
14754;SDS011;7469;50.906;6.952;2023-03-14T14:29:30;9.07;;;2.17;;
14754;SDS011;7469;50.906;6.952;2023-03-14T14:31:59;8.63;;;1.90;;
14754;SDS011;7469;50.906;6.952;2023-03-14T14:34:30;9.13;;;1.87;;
14754;SDS011;7469;50.906;6.952;2023-03-14T14:37:14;6.80;;;1.60;;
14754;SDS011;7469;50.906;6.952;2023-03-14T14:39:53;7.93;;;2.30;;
14754;SDS011;7469;50.906;6.952;2023-03-14T14:42:24;8.53;;;1.57;;
14754;SDS011;7469;50.906;6.952;2023-03-14T14:44:55;10.00;;;2.00;;
14754;SDS011;7469;50.906;6.952;2023-03-14T14:47:24;10.03;;;1.90;;
14754;SDS011;7469;50.906;6.952;2023-03-14T14:49:59;10.17;;;1.63;;
14754;SDS011;7469;50.906;6.952;2023-03-14T14:52:33;11.17;;;2.33;;
14754;SDS011;7469;50.906;6.952;2023-03-14T14:55:10;6.33;;;1.70;;
14754;SDS011;7469;50.906;6.952;2023-03-14T14:57:40;12.00;;;2.50;;
14754;SDS011;7469;50.906;6.952;2023-03-14T15:00:17;8.73;;;2.20;;
14754;SDS011;7469;50.906;6.952;2023-03-14T15:02:48;8.80;;;2.13;;
14754;SDS011;7469;50.906;6.952;2023-03-14T15:05:22;7.37;;;2.13;;
14754;SDS011;7469;50.906;6.952;2023-03-14T15:07:52;12.63;;;2.03;;
14754;SDS011;7469;50.906;6.952;2023-03-14T15:10:21;6.87;;;2.13;;
14754;SDS011;7469;50.906;6.952;2023-03-14T15:12:50;8.13;;;2.27;;
14754;SDS011;7469;50.906;6.952;2023-03-14T15:15:18;9.03;;;2.13;;
14754;SDS011;7469;50.906;6.952;2023-03-14T15:17:46;11.47;;;2.33;;
14754;SDS011;7469;50.906;6.952;2023-03-14T15:20:15;12.43;;;2.20;;
14754;SDS011;7469;50.906;6.952;2023-03-14T15:22:47;9.13;;;2.33;;
14754;SDS011;7469;50.906;6.952;2023-03-14T15:25:15;16.20;;;2.37;;
14754;SDS011;7469;50.906;6.952;2023-03-14T15:28:04;14.63;;;2.53;;
14754;SDS011;7469;50.906;6.952;2023-03-14T15:30:40;9.57;;;2.10;;
14754;SDS011;7469;50.906;6.952;2023-03-14T15:33:08;10.27;;;2.20;;